createdAt,value
2018-01-13T00:00:08.796Z,7.03
2018-01-13T00:02:36.205Z,7.03
2018-01-13T00:05:03.634Z,7.06
2018-01-13T00:07:31.045Z,7.08
2018-01-13T00:09:58.444Z,7.13
2018-01-13T00:12:25.869Z,7.08
2018-01-13T00:14:53.285Z,7.10
2018-01-13T00:17:26.509Z,7.09
2018-01-13T00:19:53.917Z,7.09
2018-01-13T00:22:21.333Z,7.09
2018-01-13T00:24:48.753Z,7.06
2018-01-13T00:27:16.191Z,7.11
2018-01-13T00:29:43.597Z,7.04
2018-01-13T00:32:11.004Z,7.00
2018-01-13T00:34:38.432Z,6.90
2018-01-13T00:37:05.834Z,6.96
2018-01-13T00:39:33.253Z,6.83
2018-01-13T00:42:00.665Z,6.90
2018-01-13T00:44:28.081Z,6.91
2018-01-13T00:46:55.493Z,6.81
2018-01-13T00:49:22.901Z,6.75
2018-01-13T00:51:50.321Z,6.89
2018-01-13T00:54:17.750Z,7.01
2018-01-13T00:56:45.157Z,6.97
2018-01-13T00:59:12.569Z,6.95
2018-01-13T01:01:39.993Z,7.10
2018-01-13T01:04:07.402Z,7.12
2018-01-13T01:06:34.816Z,7.07
2018-01-13T01:09:02.232Z,7.15
2018-01-13T01:11:29.651Z,7.15
2018-01-13T01:13:57.063Z,7.14
2018-01-13T01:16:24.470Z,7.12
2018-01-13T01:18:51.889Z,7.11
2018-01-13T01:21:19.296Z,7.04
2018-01-13T01:23:46.709Z,6.88
2018-01-13T01:26:14.121Z,6.96
2018-01-13T01:28:41.533Z,7.04
2018-01-13T01:31:08.940Z,7.06
2018-01-13T01:33:36.373Z,7.07
2018-01-13T01:36:03.781Z,7.10
2018-01-13T01:38:31.197Z,7.14
2018-01-13T01:40:58.622Z,7.14
2018-01-13T01:43:26.025Z,7.15
2018-01-13T01:45:53.437Z,7.17
2018-01-13T01:48:25.761Z,7.18
2018-01-13T01:50:53.193Z,7.14
2018-01-13T01:53:20.612Z,7.21
2018-01-13T01:55:48.025Z,7.22
2018-01-13T01:58:15.441Z,7.25
2018-01-13T02:00:42.849Z,7.24
2018-01-13T02:03:10.265Z,7.18
2018-01-13T02:05:37.681Z,7.27
2018-01-13T02:08:05.125Z,7.26
2018-01-13T02:10:32.543Z,7.33
2018-01-13T02:12:59.944Z,7.36
2018-01-13T02:15:27.361Z,7.38
2018-01-13T02:17:54.781Z,7.41
2018-01-13T02:20:22.194Z,7.41
2018-01-13T02:22:49.609Z,7.43
2018-01-13T02:25:17.026Z,7.42
2018-01-13T02:27:44.436Z,7.42
2018-01-13T02:30:11.855Z,7.42
2018-01-13T02:32:39.533Z,7.42
2018-01-13T02:35:06.945Z,7.42
2018-01-13T02:37:34.374Z,7.33
2018-01-13T02:40:01.777Z,7.33
2018-01-13T02:42:29.222Z,7.39
2018-01-13T02:44:56.636Z,7.41
2018-01-13T02:47:24.066Z,7.42
2018-01-13T02:49:51.487Z,7.41
2018-01-13T02:52:18.912Z,7.40
2018-01-13T02:54:46.333Z,7.41
2018-01-13T02:57:13.740Z,7.39
2018-01-13T02:59:41.144Z,7.39
2018-01-13T03:02:08.567Z,7.36
2018-01-13T03:04:35.975Z,7.39
2018-01-13T03:07:03.386Z,7.40
2018-01-13T03:09:30.789Z,7.42
2018-01-13T03:11:58.214Z,7.43
2018-01-13T03:14:25.625Z,7.42
2018-01-13T03:16:53.037Z,7.42
2018-01-13T03:19:20.475Z,7.41
2018-01-13T03:21:47.877Z,7.43
2018-01-13T03:24:15.297Z,7.43
2018-01-13T03:26:42.709Z,7.43
2018-01-13T03:29:10.133Z,7.44
2018-01-13T03:31:37.574Z,7.47
2018-01-13T03:34:04.985Z,7.45
2018-01-13T03:36:32.397Z,7.46
2018-01-13T03:38:59.809Z,7.46
2018-01-13T03:41:27.237Z,7.49
2018-01-13T03:43:54.647Z,7.47
2018-01-13T03:46:22.057Z,7.51
2018-01-13T03:48:49.482Z,7.48
2018-01-13T03:51:16.897Z,7.52
2018-01-13T03:53:44.324Z,7.57
2018-01-13T03:56:11.730Z,7.54
2018-01-13T03:58:39.141Z,7.54
2018-01-13T04:01:06.563Z,7.57
2018-01-13T04:03:33.973Z,7.60
2018-01-13T04:06:01.407Z,7.61
2018-01-13T04:08:28.805Z,7.62
2018-01-13T04:10:56.213Z,7.66
2018-01-13T04:13:23.636Z,7.63
2018-01-13T04:15:51.056Z,7.63
2018-01-13T04:18:18.469Z,7.62
2018-01-13T04:20:45.886Z,7.61
2018-01-13T04:23:13.293Z,7.61
2018-01-13T04:25:40.709Z,7.61
2018-01-13T04:28:08.123Z,7.60
2018-01-13T04:30:35.549Z,7.61
2018-01-13T04:33:02.957Z,7.64
2018-01-13T04:35:30.365Z,7.59
2018-01-13T04:37:57.789Z,7.55
2018-01-13T04:40:25.192Z,7.59
2018-01-13T04:42:52.629Z,7.56
2018-01-13T04:45:20.047Z,7.57
2018-01-13T04:47:47.458Z,7.56
2018-01-13T04:50:14.883Z,7.51
2018-01-13T04:52:42.297Z,7.48
2018-01-13T04:55:09.722Z,7.48
2018-01-13T04:57:37.137Z,7.47
2018-01-13T05:00:04.551Z,7.48
2018-01-13T05:02:31.961Z,7.46
2018-01-13T05:04:59.376Z,7.46
2018-01-13T05:07:26.808Z,7.45
2018-01-13T05:09:54.221Z,7.47
2018-01-13T05:12:21.632Z,7.47
2018-01-13T05:14:49.044Z,7.54
2018-01-13T05:17:16.457Z,7.52
2018-01-13T05:19:43.881Z,7.49
2018-01-13T05:22:11.313Z,7.47
2018-01-13T05:24:38.726Z,7.47
2018-01-13T05:27:06.145Z,7.53
2018-01-13T05:29:33.549Z,7.58
2018-01-13T05:32:00.974Z,7.59
2018-01-13T05:34:28.384Z,7.59
2018-01-13T05:36:55.802Z,7.57
2018-01-13T05:39:23.225Z,7.61
2018-01-13T05:41:50.633Z,7.57
2018-01-13T05:44:18.062Z,7.60
2018-01-13T05:46:45.493Z,7.60
2018-01-13T05:49:12.905Z,7.63
2018-01-13T05:51:40.332Z,7.65
2018-01-13T05:54:07.761Z,7.66
2018-01-13T05:56:35.194Z,7.73
2018-01-13T05:59:02.593Z,7.77
2018-01-13T06:01:30.006Z,7.81
2018-01-13T06:03:57.437Z,7.83
2018-01-13T06:06:24.845Z,7.84
2018-01-13T06:08:52.285Z,7.83
2018-01-13T06:11:19.712Z,7.84
2018-01-13T06:13:47.126Z,7.86
2018-01-13T06:16:14.541Z,7.82
2018-01-13T06:18:41.961Z,7.86
2018-01-13T06:21:09.389Z,7.86
2018-01-13T06:23:36.798Z,7.86
2018-01-13T06:26:04.209Z,7.91
2018-01-13T06:28:31.629Z,7.89
2018-01-13T06:30:59.038Z,7.87
2018-01-13T06:33:26.467Z,7.84
2018-01-13T06:35:53.869Z,7.82
2018-01-13T06:38:21.273Z,7.88
2018-01-13T06:40:48.694Z,7.86
2018-01-13T06:43:16.107Z,7.87
2018-01-13T06:45:43.517Z,7.87
2018-01-13T06:48:10.929Z,7.83
2018-01-13T06:50:38.338Z,7.83
2018-01-13T06:53:05.754Z,7.85
2018-01-13T06:55:33.170Z,7.86
2018-01-13T06:58:00.601Z,7.86
2018-01-13T07:00:28.019Z,7.87
2018-01-13T07:02:55.422Z,7.85
2018-01-13T07:05:22.845Z,7.80
2018-01-13T07:07:50.257Z,7.85
2018-01-13T07:10:17.681Z,7.86
2018-01-13T07:12:45.094Z,7.83
2018-01-13T07:15:12.501Z,7.86
2018-01-13T07:17:39.915Z,7.89
2018-01-13T07:20:07.329Z,7.91
2018-01-13T07:22:34.752Z,7.91
2018-01-13T07:25:02.162Z,7.92
2018-01-13T07:27:29.573Z,7.87
2018-01-13T07:29:56.985Z,7.87
2018-01-13T07:32:24.565Z,7.92
2018-01-13T07:34:51.999Z,7.91
2018-01-13T07:37:19.409Z,7.89
2018-01-13T07:39:46.821Z,7.87
2018-01-13T07:42:14.233Z,7.87
2018-01-13T07:44:41.644Z,7.84
2018-01-13T07:47:09.065Z,7.81
2018-01-13T07:49:36.480Z,7.78
2018-01-13T07:52:03.897Z,7.79
2018-01-13T07:54:31.313Z,7.79
2018-01-13T07:56:58.721Z,7.81
2018-01-13T07:59:26.173Z,7.81
2018-01-13T08:01:53.593Z,7.85
2018-01-13T08:04:21.005Z,7.84
2018-01-13T08:06:48.421Z,7.81
2018-01-13T08:09:15.860Z,7.85
2018-01-13T08:11:43.289Z,7.83
2018-01-13T08:14:10.701Z,7.86
2018-01-13T08:16:38.117Z,7.75
2018-01-13T08:19:05.673Z,7.70
2018-01-13T08:21:33.076Z,7.72
2018-01-13T08:24:00.497Z,7.77
2018-01-13T08:26:27.909Z,7.78
2018-01-13T08:28:55.326Z,7.78
2018-01-13T08:31:22.760Z,7.71
2018-01-13T08:33:50.173Z,7.70
2018-01-13T08:36:17.599Z,7.72
2018-01-13T08:38:45.006Z,7.72
2018-01-13T08:41:12.421Z,7.65
2018-01-13T08:43:39.929Z,7.68
2018-01-13T08:46:07.334Z,7.68
2018-01-13T08:48:34.765Z,7.62
2018-01-13T08:51:02.173Z,7.59
2018-01-13T08:53:29.593Z,7.60
2018-01-13T08:55:57.005Z,7.65
2018-01-13T08:58:24.421Z,7.52
2018-01-13T09:00:51.857Z,7.44
2018-01-13T09:03:19.265Z,7.46
2018-01-13T09:05:46.693Z,7.46
2018-01-13T09:08:14.117Z,7.37
2018-01-13T09:10:41.528Z,7.33
2018-01-13T09:13:08.965Z,7.26
2018-01-13T09:15:36.373Z,7.20
2018-01-13T09:18:03.782Z,7.15
2018-01-13T09:20:31.208Z,7.20
2018-01-13T09:22:58.613Z,7.25
2018-01-13T09:25:26.046Z,7.25
2018-01-13T09:27:53.457Z,7.28
2018-01-13T09:30:20.921Z,7.30
2018-01-13T09:32:48.337Z,7.33
2018-01-13T09:35:15.750Z,7.31
2018-01-13T09:37:43.165Z,7.39
2018-01-13T09:40:10.597Z,7.33
2018-01-13T09:42:38.010Z,7.41
2018-01-13T09:45:05.429Z,7.44
2018-01-13T09:47:32.844Z,7.49
2018-01-13T09:50:00.981Z,7.56
2018-01-13T09:52:28.381Z,7.54
2018-01-13T09:54:56.313Z,7.53
2018-01-13T09:57:26.903Z,7.53
2018-01-13T09:59:54.306Z,7.52
2018-01-13T10:02:21.744Z,7.40
2018-01-13T10:04:49.157Z,7.35
2018-01-13T10:07:16.578Z,7.39
2018-01-13T10:09:43.988Z,7.41
2018-01-13T10:12:11.411Z,7.47
2018-01-13T10:14:38.841Z,7.54
2018-01-13T10:17:06.257Z,7.62
2018-01-13T10:19:33.671Z,7.70
2018-01-13T10:22:01.200Z,7.74
2018-01-13T10:24:28.609Z,7.83
2018-01-13T10:26:56.049Z,7.94
2018-01-13T10:29:23.460Z,7.99
2018-01-13T10:31:50.868Z,8.00
2018-01-13T10:34:18.293Z,8.08
2018-01-13T10:36:45.705Z,8.08
2018-01-13T10:41:39.850Z,8.23
2018-01-13T10:44:07.277Z,8.25
2018-01-13T10:46:34.689Z,8.20
2018-01-13T10:49:02.121Z,8.24
2018-01-13T10:51:38.527Z,8.34
2018-01-13T10:54:06.749Z,8.31
2018-01-13T10:56:34.157Z,8.41
2018-01-13T10:59:01.580Z,8.44
2018-01-13T11:01:28.985Z,8.38
2018-01-13T11:03:56.409Z,8.49
2018-01-13T11:06:23.821Z,8.38
2018-01-13T11:08:51.249Z,8.44
2018-01-13T11:11:18.659Z,8.42
2018-01-13T11:13:46.070Z,8.49
2018-01-13T11:16:13.493Z,8.55
2018-01-13T11:18:40.917Z,8.45
2018-01-13T11:21:08.337Z,8.55
2018-01-13T11:23:35.757Z,8.51
2018-01-13T11:26:03.189Z,8.49
2018-01-13T11:28:30.601Z,8.48
2018-01-13T11:30:58.020Z,8.47
2018-01-13T11:33:25.456Z,8.46
2018-01-13T11:35:52.925Z,8.47
2018-01-13T11:38:20.353Z,8.49
2018-01-13T11:40:47.782Z,8.51
2018-01-13T11:43:15.201Z,8.42
2018-01-13T11:45:42.613Z,8.43
2018-01-13T11:48:10.041Z,8.37
2018-01-13T11:50:37.461Z,8.42
2018-01-13T11:53:04.869Z,8.45
2018-01-13T11:55:32.286Z,8.53
2018-01-13T11:57:59.706Z,8.48
2018-01-13T12:00:27.113Z,8.43
2018-01-13T12:02:54.528Z,8.48
2018-01-13T12:05:21.968Z,8.57
2018-01-13T12:07:49.389Z,8.57
2018-01-13T12:10:16.811Z,8.59
2018-01-13T12:12:44.221Z,8.71
2018-01-13T12:15:11.641Z,8.89
2018-01-13T12:17:39.049Z,9.09
2018-01-13T12:20:06.461Z,9.19
2018-01-13T12:22:33.868Z,9.17
2018-01-13T12:25:01.302Z,9.24
2018-01-13T12:27:28.709Z,9.31
2018-01-13T12:29:56.229Z,9.17
2018-01-13T12:32:23.646Z,9.08
2018-01-13T12:34:51.053Z,9.03
2018-01-13T12:37:18.498Z,9.05
2018-01-13T12:39:45.908Z,9.06
2018-01-13T12:42:15.472Z,9.05
2018-01-13T12:44:42.969Z,8.99
2018-01-13T12:47:10.378Z,9.05
2018-01-13T12:49:37.797Z,9.08
2018-01-13T12:52:05.234Z,9.14
2018-01-13T12:54:32.665Z,9.22
2018-01-13T12:57:01.122Z,9.16
2018-01-13T12:59:28.617Z,9.06
2018-01-13T13:01:56.965Z,9.00
2018-01-13T13:04:24.965Z,8.91
2018-01-13T13:06:52.405Z,8.80
2018-01-13T13:09:19.857Z,8.72
2018-01-13T13:11:47.268Z,8.44
2018-01-13T13:14:14.711Z,8.37
2018-01-13T13:16:42.094Z,8.25
2018-01-13T13:19:09.616Z,8.32
2018-01-13T13:21:37.002Z,8.32
2018-01-13T13:24:04.463Z,8.24
2018-01-13T13:26:35.778Z,8.21
2018-01-13T13:29:03.224Z,8.23
2018-01-13T13:31:30.635Z,8.28
2018-01-13T13:33:58.081Z,8.29
2018-01-13T13:36:26.318Z,8.45
2018-01-13T13:38:53.885Z,8.52
2018-01-13T13:41:21.369Z,8.64
2018-01-13T13:43:48.786Z,8.84
2018-01-13T13:46:17.132Z,8.97
2018-01-13T13:48:45.672Z,9.14
2018-01-13T13:51:13.205Z,9.20
2018-01-13T13:53:40.609Z,9.25
2018-01-13T13:56:08.021Z,9.44
2018-01-13T13:58:35.857Z,9.50
2018-01-13T14:01:28.204Z,9.53
2018-01-13T14:03:30.753Z,9.63
2018-01-13T14:05:58.165Z,9.55
2018-01-13T14:08:26.606Z,9.51
2018-01-13T14:10:54.025Z,9.53
2018-01-13T14:13:21.448Z,9.38
2018-01-13T14:15:48.860Z,9.16
2018-01-13T14:18:16.277Z,9.18
2018-01-13T14:20:43.685Z,9.24
2018-01-13T14:23:11.171Z,9.14
2018-01-13T14:25:38.595Z,9.06
2018-01-13T14:28:06.016Z,9.08
2018-01-13T14:30:33.425Z,9.14
2018-01-13T14:33:00.868Z,9.15
2018-01-13T14:35:28.281Z,9.22
2018-01-13T14:37:55.725Z,9.18
2018-01-13T14:40:23.141Z,9.11
2018-01-13T14:42:50.866Z,9.10
2018-01-13T14:45:18.269Z,8.91
2018-01-13T14:47:45.698Z,8.98
2018-01-13T14:50:13.108Z,9.09
2018-01-13T14:52:41.220Z,9.06
2018-01-13T14:55:08.640Z,8.90
2018-01-13T14:57:36.057Z,8.74
2018-01-13T15:00:03.474Z,8.69
2018-01-13T15:02:30.888Z,8.58
2018-01-13T15:04:58.310Z,8.45
2018-01-13T15:07:25.719Z,8.40
2018-01-13T15:09:53.141Z,8.30
2018-01-13T15:12:20.558Z,8.19
2018-01-13T15:14:47.970Z,8.09
2018-01-13T15:17:15.433Z,7.98
2018-01-13T15:19:43.744Z,7.92
2018-01-13T15:22:11.181Z,7.77
2018-01-13T15:24:38.618Z,7.68
2018-01-13T15:27:06.050Z,7.58
2018-01-13T15:29:33.490Z,7.54
2018-01-13T15:32:00.894Z,7.44
2018-01-13T15:34:29.033Z,7.45
2018-01-13T15:36:56.450Z,7.43
2018-01-13T15:39:23.881Z,7.42
2018-01-13T15:41:51.294Z,7.42
2018-01-13T15:44:18.709Z,7.37
2018-01-13T15:46:46.121Z,7.38
2018-01-13T15:49:13.606Z,7.42
2018-01-13T15:51:41.014Z,7.42
2018-01-13T15:54:24.886Z,7.32
2018-01-13T15:56:54.633Z,7.34
2018-01-13T15:59:22.095Z,7.30
2018-01-13T16:01:49.605Z,7.23
2018-01-13T16:04:17.009Z,7.18
2018-01-13T16:06:44.432Z,7.21
2018-01-13T16:09:11.845Z,7.09
2018-01-13T16:11:39.269Z,7.08
2018-01-13T16:14:07.705Z,7.00
2018-01-13T16:16:35.125Z,6.97
2018-01-13T16:19:02.537Z,6.99
2018-01-13T16:21:32.792Z,6.99
2018-01-13T16:24:02.717Z,6.91
2018-01-13T16:26:33.367Z,6.85
2018-01-13T16:29:02.199Z,6.89
2018-01-13T16:31:30.370Z,6.85
2018-01-13T16:34:01.594Z,6.86
2018-01-13T16:36:31.310Z,6.83
2018-01-13T16:39:05.020Z,6.78
2018-01-13T16:41:38.148Z,6.73
2018-01-13T16:44:07.069Z,6.76
2018-01-13T16:46:38.932Z,6.71
2018-01-13T16:49:10.022Z,6.76
2018-01-13T16:51:37.475Z,6.77
2018-01-13T16:54:04.873Z,6.77
2018-01-13T16:56:32.293Z,6.73
2018-01-13T16:58:59.729Z,6.83
2018-01-13T17:01:27.157Z,6.83
2018-01-13T17:03:54.578Z,6.78
2018-01-13T17:06:21.985Z,6.79
2018-01-13T17:08:49.401Z,6.77
2018-01-13T17:11:16.846Z,6.72
2018-01-13T17:13:44.289Z,6.65
2018-01-13T17:16:14.110Z,6.66
2018-01-13T17:18:44.952Z,6.68
2018-01-13T17:21:14.442Z,6.70
2018-01-13T17:23:45.587Z,6.66
2018-01-13T17:26:14.522Z,6.72
2018-01-13T17:28:42.949Z,6.64
2018-01-13T17:31:14.146Z,6.71
2018-01-13T17:33:43.586Z,6.66
2018-01-13T17:36:12.636Z,6.63
2018-01-13T17:38:42.147Z,6.65
2018-01-13T17:41:13.010Z,6.63
2018-01-13T17:43:42.580Z,6.54
2018-01-13T17:46:10.114Z,6.50
2018-01-13T17:48:37.568Z,6.45
2018-01-13T17:51:04.973Z,6.50
2018-01-13T17:53:32.397Z,6.53
2018-01-13T17:55:59.825Z,6.55
2018-01-13T17:58:29.229Z,6.49
2018-01-13T18:00:56.669Z,6.45
2018-01-13T18:03:24.077Z,6.42
2018-01-13T18:05:51.528Z,6.48
2018-01-13T18:08:19.048Z,6.48
2018-01-13T18:10:46.467Z,6.50
2018-01-13T18:13:13.878Z,6.48
2018-01-13T18:15:41.291Z,6.51
2018-01-13T18:18:08.738Z,6.52
2018-01-13T18:20:36.151Z,6.55
2018-01-13T18:23:03.569Z,6.54
2018-01-13T18:25:30.987Z,6.53
2018-01-13T18:27:58.401Z,6.60
2018-01-13T18:30:25.823Z,6.66
2018-01-13T18:32:53.248Z,6.72
2018-01-13T18:35:20.665Z,6.75
2018-01-13T18:37:48.119Z,6.79
2018-01-13T18:40:15.583Z,6.81
2018-01-13T18:42:42.998Z,6.78
2018-01-13T18:45:10.415Z,6.82
2018-01-13T18:47:37.838Z,6.78
2018-01-13T18:50:05.258Z,6.81
2018-01-13T18:52:32.692Z,6.81
2018-01-13T18:55:00.123Z,6.81
2018-01-13T18:57:27.548Z,6.79
2018-01-13T18:59:54.979Z,6.79
2018-01-13T19:02:22.385Z,6.93
2018-01-13T19:04:49.815Z,6.97
2018-01-13T19:07:17.249Z,6.95
2018-01-13T19:09:44.678Z,6.99
2018-01-13T19:12:12.093Z,7.00
2018-01-13T19:14:39.554Z,7.05
2018-01-13T19:17:06.975Z,7.04
2018-01-13T19:19:34.477Z,7.07
2018-01-13T19:22:02.394Z,7.14
2018-01-13T19:24:29.794Z,7.06
2018-01-13T19:26:58.201Z,7.04
2018-01-13T19:29:26.217Z,7.00
2018-01-13T19:31:54.569Z,7.06
2018-01-13T19:34:21.981Z,7.11
2018-01-13T19:36:53.474Z,7.12
2018-01-13T19:39:20.933Z,7.08
2018-01-13T19:41:48.394Z,7.12
2018-01-13T19:44:17.373Z,7.11
2018-01-13T19:46:44.825Z,7.11
2018-01-13T19:49:13.185Z,7.09
2018-01-13T19:51:41.449Z,7.09
2018-01-13T19:54:09.899Z,7.14
2018-01-13T19:56:37.978Z,7.14
2018-01-13T19:59:05.385Z,7.17
2018-01-13T20:01:32.862Z,7.19
2018-01-13T20:04:00.369Z,7.09
2018-01-13T20:06:27.784Z,7.13
2018-01-13T20:08:55.218Z,7.17
2018-01-13T20:11:22.634Z,7.18
2018-01-13T20:13:51.830Z,7.15
2018-01-13T20:16:19.241Z,7.13
2018-01-13T20:18:46.658Z,7.09
2018-01-13T20:21:14.073Z,7.17
2018-01-13T20:23:41.494Z,7.10
2018-01-13T20:26:08.929Z,7.07
2018-01-13T20:28:36.335Z,7.06
2018-01-13T20:31:03.773Z,7.12
2018-01-13T20:33:31.264Z,7.10
2018-01-13T20:35:58.642Z,7.10
2018-01-13T20:38:26.053Z,7.10
2018-01-13T20:40:53.480Z,6.99
2018-01-13T20:43:20.885Z,7.00
2018-01-13T20:45:48.305Z,6.88
2018-01-13T20:48:15.764Z,6.93
2018-01-13T20:50:43.179Z,6.91
2018-01-13T20:53:10.597Z,6.93
2018-01-13T20:55:38.013Z,7.00
2018-01-13T20:58:05.437Z,6.86
2018-01-13T21:00:32.849Z,6.87
2018-01-13T21:03:00.262Z,6.83
2018-01-13T21:05:27.678Z,6.86
2018-01-13T21:07:55.090Z,6.92
2018-01-13T21:10:22.497Z,6.92
2018-01-13T21:12:49.910Z,6.94
2018-01-13T21:15:17.326Z,6.99
2018-01-13T21:17:44.738Z,6.98
2018-01-13T21:20:12.170Z,6.97
2018-01-13T21:22:39.665Z,7.00
2018-01-13T21:25:07.078Z,6.94
2018-01-13T21:27:34.492Z,7.01
2018-01-13T21:30:01.901Z,6.99
2018-01-13T21:32:29.317Z,7.05
2018-01-13T21:34:56.729Z,7.02
2018-01-13T21:37:24.164Z,7.08
2018-01-13T21:39:51.581Z,7.09
2018-01-13T21:42:19.012Z,6.93
2018-01-13T21:44:46.425Z,6.97
2018-01-13T21:47:13.852Z,7.05
2018-01-13T21:49:41.270Z,6.92
2018-01-13T21:52:08.697Z,7.01
2018-01-13T21:54:36.114Z,6.96
2018-01-13T21:57:03.536Z,6.95
2018-01-13T21:59:30.985Z,6.95
2018-01-13T22:01:58.406Z,7.01
2018-01-13T22:04:25.825Z,6.86
2018-01-13T22:06:53.246Z,6.92
2018-01-13T22:09:20.649Z,6.95
2018-01-13T22:11:48.074Z,7.01
2018-01-13T22:14:15.488Z,7.01
2018-01-13T22:16:42.916Z,7.06
2018-01-13T22:19:10.321Z,7.02
2018-01-13T22:21:37.757Z,6.99
2018-01-13T22:24:05.165Z,6.91
2018-01-13T22:26:32.585Z,6.88
2018-01-13T22:29:00.019Z,6.93
2018-01-13T22:31:27.431Z,6.88
2018-01-13T22:33:54.841Z,6.87
2018-01-13T22:36:22.258Z,6.92
2018-01-13T22:38:49.704Z,6.81
2018-01-13T22:41:17.117Z,6.93
2018-01-13T22:43:44.529Z,6.90
2018-01-13T22:46:11.944Z,6.93
2018-01-13T22:48:39.366Z,6.95
2018-01-13T22:51:06.777Z,6.85
2018-01-13T22:53:34.208Z,6.81
2018-01-13T22:56:01.629Z,6.75
2018-01-13T22:58:29.088Z,6.76
2018-01-13T23:00:56.509Z,6.70
2018-01-13T23:03:23.975Z,6.78
2018-01-13T23:05:51.378Z,6.71
2018-01-13T23:08:18.846Z,6.77
2018-01-13T23:10:46.256Z,6.83
2018-01-13T23:13:13.689Z,6.89
2018-01-13T23:15:41.633Z,6.87
2018-01-13T23:18:09.069Z,6.78
2018-01-13T23:20:36.477Z,6.77
2018-01-13T23:23:03.910Z,6.67
2018-01-13T23:25:31.327Z,6.67
2018-01-13T23:27:58.738Z,6.70
2018-01-13T23:30:26.149Z,6.71
2018-01-13T23:32:53.557Z,6.69
2018-01-13T23:35:21.034Z,6.66
2018-01-13T23:37:48.440Z,6.70
2018-01-13T23:40:15.873Z,6.55
2018-01-13T23:42:43.296Z,6.62
2018-01-13T23:45:10.701Z,6.67
2018-01-13T23:47:38.118Z,6.67
2018-01-13T23:50:05.618Z,6.59
2018-01-13T23:52:33.040Z,6.63
2018-01-13T23:55:00.455Z,6.65
2018-01-13T23:57:27.910Z,6.64
2018-01-13T23:59:55.324Z,6.67
